createdAt,value
2022-12-13T00:01:37.824Z,0.00
2022-12-13T00:02:37.875Z,0.00
2022-12-13T00:03:37.900Z,0.00
2022-12-13T00:04:37.955Z,0.00
2022-12-13T00:05:38.025Z,0.00
2022-12-13T00:06:38.004Z,0.00
2022-12-13T00:07:38.065Z,0.00
2022-12-13T00:08:38.093Z,0.00
2022-12-13T00:09:38.156Z,0.00
2022-12-13T00:10:38.245Z,0.00
2022-12-13T00:11:38.276Z,0.00
2022-12-13T00:12:38.275Z,0.00
2022-12-13T00:13:38.262Z,0.00
2022-12-13T00:14:38.260Z,0.00
2022-12-13T00:15:38.246Z,0.00
2022-12-13T00:16:38.272Z,0.00
2022-12-13T00:17:38.295Z,0.00
2022-12-13T00:18:38.287Z,0.00
2022-12-13T00:19:38.304Z,0.00
2022-12-13T00:20:38.302Z,0.00
2022-12-13T00:21:38.288Z,0.00
2022-12-13T00:22:38.296Z,0.00
2022-12-13T00:23:38.285Z,0.00
2022-12-13T00:24:44.378Z,0.00
2022-12-13T00:25:38.336Z,0.00
2022-12-13T00:26:38.332Z,0.00
2022-12-13T00:27:38.326Z,0.00
2022-12-13T00:28:38.319Z,0.00
2022-12-13T00:29:38.325Z,0.00
2022-12-13T00:30:38.396Z,0.00
2022-12-13T00:31:59.878Z,0.00
2022-12-13T00:32:38.366Z,0.00
2022-12-13T00:33:38.367Z,0.00
2022-12-13T00:34:38.366Z,0.00
2022-12-13T00:35:38.367Z,0.00
2022-12-13T00:36:38.367Z,0.00
2022-12-13T00:37:38.377Z,0.00
2022-12-13T00:38:38.376Z,0.00
2022-12-13T00:39:38.376Z,0.00
2022-12-13T00:40:38.378Z,0.00
2022-12-13T00:41:38.367Z,0.00
2022-12-13T00:42:38.357Z,0.00
2022-12-13T00:43:38.358Z,0.00
2022-12-13T00:44:38.357Z,0.00
2022-12-13T00:45:38.339Z,0.00
2022-12-13T00:46:38.328Z,0.00
2022-12-13T00:47:38.317Z,0.00
2022-12-13T00:48:38.332Z,0.00
2022-12-13T00:49:38.326Z,0.00
2022-12-13T00:50:38.319Z,0.00
2022-12-13T00:51:38.389Z,0.00
2022-12-13T00:52:38.378Z,0.00
2022-12-13T00:53:38.369Z,0.00
2022-12-13T00:54:38.368Z,0.00
2022-12-13T00:55:38.358Z,0.00
2022-12-13T00:56:38.359Z,0.00
2022-12-13T00:57:38.367Z,0.00
2022-12-13T00:58:38.366Z,0.00
2022-12-13T00:59:39.079Z,0.00
2022-12-13T01:00:38.467Z,0.00
2022-12-13T01:01:38.505Z,0.00
2022-12-13T01:02:38.509Z,0.00
2022-12-13T01:03:38.591Z,0.00
2022-12-13T01:04:38.528Z,0.00
2022-12-13T01:06:13.813Z,0.00
2022-12-13T01:06:38.629Z,0.00
2022-12-13T01:07:38.650Z,0.00
2022-12-13T01:08:38.639Z,0.00
2022-12-13T01:09:38.643Z,0.00
2022-12-13T01:10:38.630Z,0.00
2022-12-13T01:11:38.620Z,0.00
2022-12-13T01:12:38.601Z,0.00
2022-12-13T01:13:38.609Z,0.00
2022-12-13T01:14:38.639Z,0.00
2022-12-13T01:15:38.631Z,0.00
2022-12-13T01:16:38.662Z,0.00
2022-12-13T01:17:38.660Z,0.00
2022-12-13T01:18:38.661Z,0.00
2022-12-13T01:19:38.681Z,0.00
2022-12-13T01:20:38.670Z,0.00
2022-12-13T01:21:38.660Z,0.00
2022-12-13T01:22:38.661Z,0.00
2022-12-13T01:23:38.660Z,0.00
2022-12-13T01:24:38.660Z,0.00
2022-12-13T01:25:38.689Z,0.00
2022-12-13T01:26:38.708Z,0.00
2022-12-13T01:27:38.701Z,0.00
2022-12-13T01:28:38.710Z,0.00
2022-12-13T01:29:38.708Z,0.00
2022-12-13T01:30:38.769Z,0.00
2022-12-13T01:31:38.711Z,0.00
2022-12-13T01:32:38.710Z,0.00
2022-12-13T01:33:38.705Z,0.00
2022-12-13T01:34:38.699Z,0.00
2022-12-13T01:35:38.692Z,0.00
2022-12-13T01:36:38.750Z,0.00
2022-12-13T01:37:38.743Z,0.00
2022-12-13T01:38:38.731Z,0.00
2022-12-13T01:39:38.732Z,0.00
2022-12-13T01:40:38.881Z,0.00
2022-12-13T01:41:38.818Z,0.00
2022-12-13T01:42:38.801Z,0.00
2022-12-13T01:43:38.792Z,0.00
2022-12-13T01:44:38.792Z,0.00
2022-12-13T01:45:38.773Z,0.00
2022-12-13T01:46:38.760Z,0.00
2022-12-13T01:47:38.848Z,0.00
2022-12-13T01:48:38.831Z,0.00
2022-12-13T01:49:38.824Z,0.00
2022-12-13T01:50:38.812Z,0.00
2022-12-13T01:51:38.803Z,0.00
2022-12-13T01:52:38.823Z,0.00
2022-12-13T01:53:38.801Z,0.00
2022-12-13T01:54:38.863Z,0.00
2022-12-13T01:55:41.526Z,0.00
2022-12-13T01:56:38.903Z,0.00
2022-12-13T01:57:43.708Z,0.00
2022-12-13T01:58:38.933Z,0.00
2022-12-13T01:59:39.011Z,0.00
2022-12-13T02:00:40.866Z,0.00
2022-12-13T02:01:39.066Z,0.00
2022-12-13T02:02:39.073Z,0.00
2022-12-13T02:03:39.087Z,0.00
2022-12-13T02:04:44.328Z,0.00
2022-12-13T02:05:39.103Z,0.00
2022-12-13T02:06:39.115Z,0.00
2022-12-13T02:07:39.821Z,0.00
2022-12-13T02:08:39.154Z,0.00
2022-12-13T02:09:39.144Z,0.00
2022-12-13T02:10:39.135Z,0.00
2022-12-13T02:11:39.126Z,0.00
2022-12-13T02:12:39.144Z,0.00
2022-12-13T02:13:39.136Z,0.00
2022-12-13T02:14:39.124Z,0.00
2022-12-13T02:15:39.178Z,0.00
2022-12-13T02:16:39.182Z,0.00
2022-12-13T02:17:44.561Z,0.00
2022-12-13T02:18:39.204Z,0.00
2022-12-13T02:19:39.195Z,0.00
2022-12-13T02:20:39.198Z,0.00
2022-12-13T02:21:39.202Z,0.00
2022-12-13T02:22:39.197Z,0.00
2022-12-13T02:23:39.185Z,0.00
2022-12-13T02:24:39.186Z,0.00
2022-12-13T02:25:39.174Z,0.00
2022-12-13T02:26:39.194Z,0.00
2022-12-13T02:27:42.572Z,0.00
2022-12-13T02:28:39.256Z,0.00
2022-12-13T02:29:39.255Z,0.00
2022-12-13T02:30:39.245Z,0.00
2022-12-13T02:31:39.287Z,0.00
2022-12-13T02:32:39.285Z,0.00
2022-12-13T02:33:39.277Z,0.00
2022-12-13T02:34:39.276Z,0.00
2022-12-13T02:35:39.266Z,0.00
2022-12-13T02:36:39.256Z,0.00
2022-12-13T02:37:39.276Z,0.00
2022-12-13T02:38:39.276Z,0.00
2022-12-13T02:39:39.276Z,0.00
2022-12-13T02:40:39.276Z,0.00
2022-12-13T02:41:39.278Z,0.00
2022-12-13T02:42:39.296Z,0.00
2022-12-13T02:43:39.297Z,0.00
2022-12-13T02:44:39.316Z,0.00
2022-12-13T02:45:39.316Z,0.00
2022-12-13T02:46:39.368Z,0.00
2022-12-13T02:47:39.397Z,0.00
2022-12-13T02:48:39.404Z,0.00
2022-12-13T02:49:39.396Z,0.00
2022-12-13T02:50:39.397Z,0.00
2022-12-13T02:51:39.395Z,0.00
2022-12-13T02:52:39.399Z,0.00
2022-12-13T02:53:39.417Z,0.00
2022-12-13T02:54:39.406Z,0.00
2022-12-13T02:55:39.418Z,0.00
2022-12-13T02:56:39.428Z,0.00
2022-12-13T02:57:39.427Z,0.00
2022-12-13T02:58:39.448Z,0.00
2022-12-13T02:59:39.467Z,0.00
2022-12-13T03:00:39.468Z,0.00
2022-12-13T03:01:40.232Z,0.00
2022-12-13T03:02:39.528Z,0.00
2022-12-13T03:03:40.194Z,0.00
2022-12-13T03:04:39.488Z,0.00
2022-12-13T03:05:39.496Z,0.00
2022-12-13T03:06:39.488Z,0.00
2022-12-13T03:07:39.489Z,0.00
2022-12-13T03:08:39.478Z,0.00
2022-12-13T03:09:39.509Z,0.00
2022-12-13T03:10:39.502Z,0.00
2022-12-13T03:11:39.499Z,0.00
2022-12-13T03:12:39.495Z,0.00
2022-12-13T03:13:39.479Z,0.00
2022-12-13T03:14:39.470Z,0.00
2022-12-13T03:15:39.516Z,0.00
2022-12-13T03:16:39.510Z,0.00
2022-12-13T03:17:39.501Z,0.00
2022-12-13T03:18:39.509Z,0.00
2022-12-13T03:19:39.516Z,0.00
2022-12-13T03:20:39.518Z,0.00
2022-12-13T03:21:45.550Z,0.00
2022-12-13T03:22:39.536Z,0.00
2022-12-13T03:23:39.539Z,0.00
2022-12-13T03:24:39.550Z,0.00
2022-12-13T03:25:39.549Z,0.00
2022-12-13T03:26:39.539Z,0.00
2022-12-13T03:27:39.539Z,0.00
2022-12-13T03:28:39.562Z,0.00
2022-12-13T03:29:39.562Z,0.00
2022-12-13T03:30:39.557Z,0.00
2022-12-13T03:31:39.599Z,0.00
2022-12-13T03:32:39.611Z,0.00
2022-12-13T03:33:39.714Z,0.00
2022-12-13T03:34:43.291Z,0.00
2022-12-13T03:35:44.681Z,0.00
2022-12-13T03:36:39.734Z,0.00
2022-12-13T03:37:39.728Z,0.00
2022-12-13T03:38:39.740Z,0.00
2022-12-13T03:39:39.740Z,0.00
2022-12-13T03:40:39.730Z,0.00
2022-12-13T03:41:39.731Z,0.00
2022-12-13T03:42:39.731Z,0.00
2022-12-13T03:43:39.750Z,0.00
2022-12-13T03:44:39.742Z,0.00
2022-12-13T03:45:39.740Z,0.00
2022-12-13T03:46:39.752Z,0.00
2022-12-13T03:47:39.741Z,0.00
2022-12-13T03:48:39.742Z,0.00
2022-12-13T03:49:39.770Z,0.00
2022-12-13T03:50:39.771Z,0.00
2022-12-13T03:51:39.850Z,0.00
2022-12-13T03:52:39.822Z,0.00
2022-12-13T03:53:39.822Z,0.00
2022-12-13T03:54:39.832Z,0.00
2022-12-13T03:55:39.853Z,0.00
2022-12-13T03:56:39.851Z,0.00
2022-12-13T03:57:39.844Z,0.00
2022-12-13T03:58:39.892Z,0.00
2022-12-13T03:59:39.942Z,0.00
2022-12-13T04:00:40.010Z,0.00
2022-12-13T04:01:40.151Z,0.00
2022-12-13T04:02:40.151Z,0.00
2022-12-13T04:03:40.145Z,0.00
2022-12-13T04:04:40.135Z,0.00
2022-12-13T04:05:40.133Z,0.00
2022-12-13T04:06:40.184Z,0.00
2022-12-13T04:07:40.155Z,0.00
2022-12-13T04:08:40.217Z,0.00
2022-12-13T04:09:40.224Z,0.00
2022-12-13T04:12:06.192Z,0.00
2022-12-13T04:13:06.175Z,0.00
2022-12-13T04:14:06.252Z,0.00
2022-12-13T04:15:06.243Z,0.00
2022-12-13T04:16:06.247Z,0.00
2022-12-13T04:17:06.245Z,0.00
2022-12-13T04:18:06.425Z,0.00
2022-12-13T04:19:06.394Z,0.00
2022-12-13T04:20:06.379Z,0.00
2022-12-13T04:21:06.466Z,0.00
2022-12-13T04:22:06.465Z,0.00
2022-12-13T04:23:10.090Z,0.00
2022-12-13T04:24:06.514Z,0.00
2022-12-13T04:25:06.603Z,0.00
2022-12-13T04:26:06.625Z,0.00
2022-12-13T04:27:06.605Z,0.00
2022-12-13T04:28:06.679Z,0.00
2022-12-13T04:29:06.665Z,0.00
2022-12-13T04:30:06.695Z,0.00
2022-12-13T04:31:06.749Z,0.00
2022-12-13T04:32:26.892Z,0.00
2022-12-13T04:33:06.715Z,0.00
2022-12-13T04:34:06.715Z,0.00
2022-12-13T04:35:06.731Z,0.00
2022-12-13T04:36:06.734Z,0.00
2022-12-13T04:37:06.725Z,0.00
2022-12-13T04:38:06.715Z,0.00
2022-12-13T04:39:22.406Z,0.00
2022-12-13T04:40:06.717Z,0.00
2022-12-13T04:41:06.737Z,0.00
2022-12-13T04:42:06.737Z,0.00
2022-12-13T04:43:06.738Z,0.00
2022-12-13T04:44:06.726Z,0.00
2022-12-13T04:45:06.735Z,0.00
2022-12-13T04:46:06.845Z,0.00
2022-12-13T04:47:06.837Z,0.00
2022-12-13T04:48:06.848Z,0.00
2022-12-13T04:49:06.888Z,0.00
2022-12-13T04:50:06.967Z,0.00
2022-12-13T04:51:06.971Z,0.00
2022-12-13T04:52:06.956Z,0.00
2022-12-13T04:53:06.987Z,0.00
2022-12-13T04:54:23.999Z,0.00
2022-12-13T04:55:06.978Z,0.00
2022-12-13T04:56:06.977Z,0.00
2022-12-13T04:57:07.052Z,0.00
2022-12-13T04:58:07.057Z,0.00
2022-12-13T04:59:07.067Z,0.00
2022-12-13T05:00:07.019Z,0.00
2022-12-13T05:01:07.124Z,0.00
2022-12-13T05:02:07.142Z,0.00
2022-12-13T05:03:07.118Z,0.00
2022-12-13T05:04:07.195Z,0.00
2022-12-13T05:06:33.260Z,0.00
2022-12-13T05:07:33.261Z,0.00
2022-12-13T05:08:33.390Z,0.00
2022-12-13T05:09:33.347Z,0.00
2022-12-13T05:10:37.738Z,0.00
2022-12-13T05:11:35.675Z,0.00
2022-12-13T05:12:33.478Z,0.00
2022-12-13T05:13:33.517Z,0.00
2022-12-13T05:14:33.510Z,0.00
2022-12-13T05:15:33.520Z,0.00
2022-12-13T05:16:33.525Z,0.00
2022-12-13T05:17:33.561Z,0.00
2022-12-13T05:18:33.581Z,0.00
2022-12-13T05:19:33.621Z,0.00
2022-12-13T05:20:33.671Z,0.00
2022-12-13T05:21:33.709Z,0.00
2022-12-13T05:22:33.761Z,0.00
2022-12-13T05:23:33.821Z,0.00
2022-12-13T05:24:33.851Z,0.00
2022-12-13T05:25:33.834Z,0.00
2022-12-13T05:26:33.892Z,0.00
2022-12-13T05:27:33.881Z,0.00
2022-12-13T05:28:33.884Z,0.00
2022-12-13T05:29:33.931Z,0.00
2022-12-13T05:30:33.961Z,0.00
2022-12-13T05:31:34.046Z,0.00
2022-12-13T05:32:43.107Z,0.00
2022-12-13T05:33:34.031Z,0.00
2022-12-13T05:34:34.073Z,0.00
2022-12-13T05:35:34.096Z,0.00
2022-12-13T05:36:34.190Z,0.00
2022-12-13T05:37:34.894Z,0.00
2022-12-13T05:38:34.216Z,0.00
2022-12-13T05:39:34.272Z,0.00
2022-12-13T05:40:34.305Z,0.00
2022-12-13T05:41:34.360Z,0.00
2022-12-13T05:42:34.345Z,0.00
2022-12-13T05:43:43.113Z,0.00
2022-12-13T05:44:34.453Z,0.00
2022-12-13T05:45:34.582Z,0.00
2022-12-13T05:46:41.305Z,0.00
2022-12-13T05:47:34.596Z,0.00
2022-12-13T05:48:34.610Z,0.00
2022-12-13T05:49:34.593Z,0.00
2022-12-13T05:50:34.633Z,0.00
2022-12-13T05:51:34.604Z,0.00
2022-12-13T05:52:35.477Z,0.00
2022-12-13T05:53:34.692Z,0.00
2022-12-13T05:54:34.703Z,0.00
2022-12-13T05:55:34.731Z,0.00
2022-12-13T05:56:34.724Z,0.00
2022-12-13T05:57:34.774Z,0.00
2022-12-13T05:58:35.617Z,0.00
2022-12-13T05:59:34.820Z,0.00
2022-12-13T06:00:34.795Z,0.00
2022-12-13T06:01:34.815Z,0.00
2022-12-13T06:02:34.943Z,0.00
2022-12-13T06:03:35.115Z,0.00
2022-12-13T06:04:34.926Z,0.00
2022-12-13T06:05:34.963Z,0.00
2022-12-13T06:06:35.065Z,0.00
2022-12-13T06:07:35.004Z,0.00
2022-12-13T06:08:35.218Z,0.00
2022-12-13T06:09:40.240Z,0.00
2022-12-13T06:10:35.644Z,0.00
2022-12-13T06:11:35.136Z,0.00
2022-12-13T06:12:35.207Z,0.00
2022-12-13T06:13:35.238Z,0.00
2022-12-13T06:14:35.244Z,0.00
2022-12-13T06:15:35.246Z,0.00
2022-12-13T06:16:35.312Z,0.00
2022-12-13T06:17:35.275Z,0.00
2022-12-13T06:18:35.366Z,0.00
2022-12-13T06:19:35.385Z,0.00
2022-12-13T06:20:35.396Z,0.00
2022-12-13T06:21:41.594Z,0.00
2022-12-13T06:22:35.418Z,0.00
2022-12-13T06:23:35.451Z,0.00
2022-12-13T06:24:35.439Z,0.00
2022-12-13T06:25:35.446Z,0.00
2022-12-13T06:26:35.518Z,0.00
2022-12-13T06:27:35.556Z,0.00
2022-12-13T06:28:35.617Z,0.00
2022-12-13T06:29:35.578Z,0.00
2022-12-13T06:30:35.724Z,0.00
2022-12-13T06:31:35.688Z,0.00
2022-12-13T06:32:38.906Z,0.00
2022-12-13T06:33:35.792Z,0.00
2022-12-13T06:34:36.183Z,0.00
2022-12-13T06:35:41.187Z,0.00
2022-12-13T06:36:35.862Z,0.00
2022-12-13T06:37:35.872Z,0.00
2022-12-13T06:38:43.103Z,0.00
2022-12-13T06:39:35.897Z,0.00
2022-12-13T06:40:35.887Z,0.00
2022-12-13T06:41:35.879Z,0.00
2022-12-13T06:42:35.859Z,0.00
2022-12-13T06:43:35.910Z,0.00
2022-12-13T06:44:35.920Z,0.00
2022-12-13T06:45:35.908Z,0.00
2022-12-13T06:46:36.020Z,0.00
2022-12-13T06:49:01.994Z,0.00
2022-12-13T06:51:32.836Z,0.00
2022-12-13T06:52:28.009Z,0.00
2022-12-13T06:54:59.690Z,0.00
2022-12-13T06:55:54.189Z,0.00
2022-12-13T06:56:54.108Z,0.00
2022-12-13T06:57:54.110Z,0.00
2022-12-13T06:58:54.191Z,0.00
2022-12-13T07:01:23.865Z,0.00
2022-12-13T07:02:25.869Z,0.00
2022-12-13T07:07:38.199Z,0.00
2022-12-13T07:10:04.237Z,0.00
2022-12-13T07:12:30.216Z,5.62
2022-12-13T07:14:56.216Z,5.62
2022-12-13T07:16:01.240Z,5.62
2022-12-13T07:17:03.205Z,5.62
2022-12-13T07:17:56.292Z,5.62
2022-12-13T07:19:00.982Z,5.62
2022-12-13T07:19:56.367Z,11.25
2022-12-13T07:22:22.420Z,11.25
2022-12-13T07:23:24.350Z,11.25
2022-12-13T07:24:22.436Z,11.25
2022-12-13T07:25:26.917Z,11.25
2022-12-13T07:26:22.519Z,11.25
2022-12-13T07:27:22.554Z,11.25
2022-12-13T07:28:22.688Z,16.88
2022-12-13T07:29:22.967Z,16.88
2022-12-13T07:30:22.640Z,16.88
2022-12-13T07:31:22.674Z,16.88
2022-12-13T07:32:22.663Z,16.88
2022-12-13T07:33:22.936Z,22.50
2022-12-13T07:34:22.808Z,22.50
2022-12-13T07:36:48.742Z,28.12
2022-12-13T07:39:14.715Z,28.12
2022-12-13T07:41:40.703Z,39.38
2022-12-13T07:44:06.769Z,45.00
2022-12-13T07:46:34.077Z,50.62
2022-12-13T07:47:32.797Z,50.62
2022-12-13T07:48:32.837Z,50.62
2022-12-13T07:49:32.886Z,50.62
2022-12-13T07:50:37.663Z,56.25
2022-12-13T07:51:32.937Z,56.25
2022-12-13T07:52:32.886Z,61.88
2022-12-13T07:53:33.514Z,61.88
2022-12-13T07:54:32.947Z,61.88
2022-12-13T07:55:33.966Z,67.50
2022-12-13T07:56:32.994Z,67.50
2022-12-13T07:57:33.049Z,78.75
2022-12-13T07:58:33.106Z,78.75
2022-12-13T07:59:33.146Z,84.38
2022-12-13T08:00:33.856Z,84.38
2022-12-13T08:01:33.254Z,84.38
2022-12-13T08:02:33.206Z,90.00
2022-12-13T08:03:33.265Z,95.62
2022-12-13T08:04:38.300Z,90.00
2022-12-13T08:05:38.652Z,90.00
2022-12-13T08:06:33.320Z,90.00
2022-12-13T08:07:33.387Z,95.62
2022-12-13T08:08:33.448Z,95.62
2022-12-13T08:09:33.379Z,95.62
2022-12-13T08:10:33.461Z,95.62
2022-12-13T08:11:33.479Z,90.00
2022-12-13T08:12:33.539Z,101.25
2022-12-13T08:13:33.558Z,106.88
2022-12-13T08:14:33.588Z,112.50
2022-12-13T08:15:33.645Z,112.50
2022-12-13T08:16:33.678Z,112.50
2022-12-13T08:17:33.639Z,118.12
2022-12-13T08:18:33.669Z,129.38
2022-12-13T08:19:33.679Z,123.75
2022-12-13T08:20:33.693Z,129.38
2022-12-13T08:22:35.933Z,135.00
2022-12-13T08:23:33.809Z,146.25
2022-12-13T08:24:33.799Z,146.25
2022-12-13T08:25:33.790Z,151.88
2022-12-13T08:26:33.819Z,151.88
2022-12-13T08:27:33.799Z,157.50
2022-12-13T08:28:33.798Z,163.12
2022-12-13T08:29:35.579Z,157.50
2022-12-13T08:30:33.887Z,163.12
2022-12-13T08:31:34.253Z,168.75
2022-12-13T08:32:33.929Z,168.75
2022-12-13T08:33:33.981Z,174.38
2022-12-13T08:34:33.964Z,174.38
2022-12-13T08:35:35.011Z,174.38
2022-12-13T08:36:34.039Z,180.00
2022-12-13T08:37:34.069Z,180.00
2022-12-13T08:38:34.110Z,180.00
2022-12-13T08:39:35.031Z,180.00
2022-12-13T08:40:34.202Z,185.62
2022-12-13T08:41:38.897Z,180.00
2022-12-13T08:42:34.199Z,185.62
2022-12-13T08:43:34.273Z,191.25
2022-12-13T08:44:34.308Z,191.25
2022-12-13T08:45:34.489Z,185.62
2022-12-13T08:46:34.396Z,191.25
2022-12-13T08:47:39.841Z,196.88
2022-12-13T08:48:34.575Z,196.88
2022-12-13T08:49:34.646Z,191.25
2022-12-13T08:50:36.263Z,191.25
2022-12-13T08:51:35.779Z,196.88
2022-12-13T08:52:39.421Z,202.50
2022-12-13T08:53:40.487Z,213.75
2022-12-13T08:54:34.701Z,213.75
2022-12-13T08:55:34.721Z,202.50
2022-12-13T08:56:34.721Z,208.12
2022-12-13T08:57:34.783Z,208.12
2022-12-13T08:58:34.733Z,213.75
2022-12-13T08:59:34.786Z,208.12
2022-12-13T09:00:35.953Z,208.12
2022-12-13T09:01:34.880Z,213.75
2022-12-13T09:02:38.134Z,213.75
2022-12-13T09:03:34.972Z,213.75
2022-12-13T09:04:34.965Z,213.75
2022-12-13T09:05:35.460Z,213.75
2022-12-13T09:06:35.003Z,213.75
2022-12-13T09:07:34.982Z,219.38
2022-12-13T09:08:35.323Z,219.38
2022-12-13T09:09:35.092Z,219.38
2022-12-13T09:10:38.603Z,225.00
2022-12-13T09:11:39.971Z,225.00
2022-12-13T09:12:35.223Z,225.00
2022-12-13T09:13:43.143Z,225.00
2022-12-13T09:14:35.321Z,225.00
2022-12-13T09:15:35.350Z,225.00
2022-12-13T09:16:36.345Z,225.00
2022-12-13T09:17:36.781Z,225.00
2022-12-13T09:18:36.955Z,230.62
2022-12-13T09:19:37.063Z,225.00
2022-12-13T09:20:40.928Z,230.62
2022-12-13T09:21:35.473Z,236.25
2022-12-13T09:22:35.455Z,236.25
2022-12-13T09:23:35.755Z,236.25
2022-12-13T09:24:36.404Z,236.25
2022-12-13T09:25:36.946Z,236.25
2022-12-13T09:26:38.446Z,236.25
2022-12-13T09:27:39.868Z,236.25
2022-12-13T09:28:35.674Z,236.25
2022-12-13T09:29:35.876Z,236.25
2022-12-13T09:30:36.138Z,236.25
2022-12-13T09:31:35.904Z,230.62
2022-12-13T09:32:35.875Z,230.62
2022-12-13T09:33:41.261Z,230.62
2022-12-13T09:34:36.149Z,230.62
2022-12-13T09:35:35.985Z,230.62
2022-12-13T09:36:36.021Z,230.62
2022-12-13T09:37:41.182Z,230.62
2022-12-13T09:38:36.112Z,230.62
2022-12-13T09:39:36.037Z,236.25
2022-12-13T09:40:37.780Z,236.25
2022-12-13T09:41:40.673Z,236.25
2022-12-13T09:42:36.547Z,241.88
2022-12-13T09:43:42.450Z,241.88
2022-12-13T09:44:44.053Z,247.50
2022-12-13T09:45:36.222Z,241.88
2022-12-13T09:46:45.041Z,292.50
2022-12-13T09:47:36.599Z,545.62
2022-12-13T09:48:36.258Z,652.50
2022-12-13T09:49:36.333Z,545.62
2022-12-13T09:50:38.760Z,416.25
2022-12-13T09:51:43.587Z,292.50
2022-12-13T09:52:36.429Z,241.88
2022-12-13T09:53:37.061Z,230.62
2022-12-13T09:54:36.577Z,230.62
2022-12-13T09:55:36.566Z,241.88
2022-12-13T09:56:36.703Z,241.88
2022-12-13T09:57:36.603Z,247.50
2022-12-13T09:58:36.614Z,253.12
2022-12-13T09:59:36.641Z,258.75
2022-12-13T10:00:36.819Z,258.75
2022-12-13T10:01:36.686Z,258.75
2022-12-13T10:02:36.728Z,253.12
2022-12-13T10:03:36.767Z,253.12
2022-12-13T10:04:36.757Z,264.38
2022-12-13T10:05:39.476Z,275.62
2022-12-13T10:06:36.838Z,241.88
2022-12-13T10:07:36.829Z,236.25
2022-12-13T10:08:36.879Z,247.50
2022-12-13T10:09:36.899Z,247.50
2022-12-13T10:10:36.932Z,241.88
2022-12-13T10:11:36.966Z,247.50
2022-12-13T10:12:36.969Z,247.50
2022-12-13T10:13:36.960Z,241.88
2022-12-13T10:14:37.011Z,247.50
2022-12-13T10:15:37.038Z,241.88
2022-12-13T10:16:37.496Z,236.25
2022-12-13T10:17:38.335Z,230.62
2022-12-13T10:18:37.116Z,230.62
2022-12-13T10:19:37.160Z,230.62
2022-12-13T10:20:37.169Z,236.25
2022-12-13T10:21:37.172Z,241.88
2022-12-13T10:22:37.219Z,247.50
2022-12-13T10:23:59.800Z,247.50
2022-12-13T10:24:37.997Z,247.50
2022-12-13T10:25:37.263Z,247.50
2022-12-13T10:26:37.320Z,253.12
2022-12-13T10:27:37.301Z,275.62
2022-12-13T10:28:37.331Z,315.00
2022-12-13T10:29:37.341Z,326.25
2022-12-13T10:30:37.347Z,275.62
2022-12-13T10:31:37.402Z,247.50
2022-12-13T10:32:38.101Z,247.50
2022-12-13T10:33:37.435Z,247.50
2022-12-13T10:34:37.451Z,241.88
2022-12-13T10:35:37.473Z,241.88
2022-12-13T10:36:37.502Z,241.88
2022-12-13T10:37:37.531Z,241.88
2022-12-13T10:38:37.594Z,241.88
2022-12-13T10:39:38.357Z,236.25
2022-12-13T10:40:37.692Z,236.25
2022-12-13T10:41:37.716Z,236.25
2022-12-13T10:42:37.712Z,236.25
2022-12-13T10:43:38.069Z,241.88
2022-12-13T10:44:37.764Z,236.25
2022-12-13T10:45:37.812Z,236.25
2022-12-13T10:46:38.925Z,236.25
2022-12-13T10:47:37.796Z,241.88
2022-12-13T10:48:38.781Z,236.25
2022-12-13T10:49:37.863Z,253.12
2022-12-13T10:50:37.892Z,258.75
2022-12-13T10:51:37.893Z,258.75
2022-12-13T10:52:43.673Z,241.88
2022-12-13T10:53:40.277Z,241.88
2022-12-13T10:54:38.439Z,264.38
2022-12-13T10:55:38.028Z,275.62
2022-12-13T10:56:39.743Z,258.75
2022-12-13T10:57:38.034Z,348.75
2022-12-13T10:58:38.055Z,360.00
2022-12-13T10:59:42.002Z,360.00
2022-12-13T11:00:38.267Z,360.00
2022-12-13T11:01:46.406Z,354.38
2022-12-13T11:02:38.290Z,348.75
2022-12-13T11:03:38.234Z,343.12
2022-12-13T11:04:38.914Z,337.50
2022-12-13T11:05:38.342Z,337.50
2022-12-13T11:06:44.519Z,326.25
2022-12-13T11:07:38.396Z,331.88
2022-12-13T11:08:38.400Z,337.50
2022-12-13T11:09:39.453Z,331.88
2022-12-13T11:10:38.446Z,331.88
2022-12-13T11:11:38.453Z,331.88
2022-12-13T11:12:38.539Z,331.88
2022-12-13T11:13:38.670Z,326.25
2022-12-13T11:14:43.351Z,331.88
2022-12-13T11:15:38.670Z,320.62
2022-12-13T11:16:38.714Z,309.38
2022-12-13T11:17:38.661Z,320.62
2022-12-13T11:18:38.735Z,326.25
2022-12-13T11:19:39.770Z,326.25
2022-12-13T11:20:38.795Z,326.25
2022-12-13T11:21:38.798Z,331.88
2022-12-13T11:22:41.556Z,326.25
2022-12-13T11:23:38.947Z,326.25
2022-12-13T11:24:38.808Z,326.25
2022-12-13T11:25:39.193Z,326.25
2022-12-13T11:26:41.894Z,326.25
2022-12-13T11:27:38.980Z,326.25
2022-12-13T11:28:39.396Z,326.25
2022-12-13T11:29:39.758Z,326.25
2022-12-13T11:30:39.097Z,326.25
2022-12-13T11:31:39.129Z,320.62
2022-12-13T11:32:39.130Z,320.62
2022-12-13T11:33:48.467Z,320.62
2022-12-13T11:34:39.140Z,320.62
2022-12-13T11:35:39.200Z,320.62
2022-12-13T11:36:39.279Z,320.62
2022-12-13T11:37:39.351Z,315.00
2022-12-13T11:38:39.400Z,315.00
2022-12-13T11:39:39.504Z,315.00
2022-12-13T11:40:39.456Z,315.00
2022-12-13T11:41:39.477Z,315.00
2022-12-13T11:42:39.532Z,315.00
2022-12-13T11:43:39.553Z,315.00
2022-12-13T11:44:43.069Z,315.00
2022-12-13T11:45:39.712Z,315.00
2022-12-13T11:46:39.662Z,315.00
2022-12-13T11:47:39.700Z,315.00
2022-12-13T11:48:39.750Z,315.00
2022-12-13T11:49:39.782Z,315.00
2022-12-13T11:50:39.899Z,309.38
2022-12-13T11:51:39.905Z,309.38
2022-12-13T11:52:39.885Z,309.38
2022-12-13T11:53:39.964Z,309.38
2022-12-13T11:54:39.934Z,309.38
2022-12-13T11:55:40.008Z,303.75
2022-12-13T11:56:40.033Z,303.75
2022-12-13T11:57:40.063Z,303.75
2022-12-13T11:59:40.674Z,298.12
2022-12-13T12:00:40.087Z,298.12
2022-12-13T12:01:40.161Z,298.12
2022-12-13T12:02:40.348Z,292.50
2022-12-13T12:03:40.297Z,292.50
2022-12-13T12:04:40.296Z,286.88
2022-12-13T12:05:40.321Z,286.88
2022-12-13T12:06:40.292Z,286.88
2022-12-13T12:07:58.454Z,286.88
2022-12-13T12:08:40.427Z,281.25
2022-12-13T12:09:40.464Z,281.25
2022-12-13T12:10:45.696Z,281.25
2022-12-13T12:11:40.515Z,281.25
2022-12-13T12:12:40.558Z,281.25
2022-12-13T12:13:51.677Z,275.62
2022-12-13T12:14:40.545Z,275.62
2022-12-13T12:15:41.985Z,275.62
2022-12-13T12:16:40.808Z,275.62
2022-12-13T12:17:42.144Z,275.62
2022-12-13T12:18:40.722Z,270.00
2022-12-13T12:19:40.742Z,270.00
2022-12-13T12:20:40.813Z,270.00
2022-12-13T12:22:12.640Z,270.00
2022-12-13T12:22:40.805Z,270.00
2022-12-13T12:23:46.378Z,270.00
2022-12-13T12:24:40.915Z,270.00
2022-12-13T12:25:42.339Z,270.00
2022-12-13T12:26:41.017Z,264.38
2022-12-13T12:27:41.018Z,264.38
2022-12-13T12:28:43.956Z,264.38
2022-12-13T12:29:41.068Z,264.38
2022-12-13T12:30:41.074Z,264.38
2022-12-13T12:31:51.327Z,258.75
2022-12-13T12:32:41.287Z,258.75
2022-12-13T12:33:41.132Z,258.75
2022-12-13T12:34:41.164Z,258.75
2022-12-13T12:35:45.790Z,253.12
2022-12-13T12:36:41.280Z,253.12
2022-12-13T12:37:41.290Z,253.12
2022-12-13T12:38:41.276Z,247.50
2022-12-13T12:39:41.274Z,247.50
2022-12-13T12:41:07.545Z,247.50
2022-12-13T12:41:45.309Z,247.50
2022-12-13T12:43:13.240Z,253.12
2022-12-13T12:43:41.393Z,247.50
2022-12-13T12:44:41.466Z,241.88
2022-12-13T12:45:56.233Z,241.88
2022-12-13T12:47:09.162Z,241.88
2022-12-13T12:48:29.640Z,241.88
2022-12-13T12:49:01.666Z,241.88
2022-12-13T12:49:41.495Z,241.88
2022-12-13T12:50:43.074Z,236.25
2022-12-13T12:51:41.558Z,236.25
2022-12-13T12:52:41.565Z,236.25
2022-12-13T12:53:41.631Z,230.62
2022-12-13T12:54:41.617Z,230.62
2022-12-13T12:55:41.605Z,230.62
2022-12-13T12:56:41.617Z,230.62
2022-12-13T12:57:41.671Z,230.62
2022-12-13T12:58:41.683Z,225.00
2022-12-13T12:59:41.733Z,225.00
2022-12-13T13:00:41.774Z,225.00
2022-12-13T13:01:43.934Z,225.00
2022-12-13T13:02:41.889Z,219.38
2022-12-13T13:03:41.902Z,219.38
2022-12-13T13:04:41.896Z,219.38
2022-12-13T13:05:42.009Z,213.75
2022-12-13T13:06:41.961Z,213.75
2022-12-13T13:07:41.997Z,213.75
2022-12-13T13:08:42.027Z,208.12
2022-12-13T13:09:42.041Z,208.12
2022-12-13T13:10:42.135Z,208.12
2022-12-13T13:13:13.284Z,208.12
2022-12-13T13:14:08.278Z,202.50
2022-12-13T13:15:17.364Z,202.50
2022-12-13T13:16:08.365Z,202.50
2022-12-13T13:17:08.343Z,202.50
2022-12-13T13:18:08.358Z,202.50
2022-12-13T13:19:08.365Z,196.88
2022-12-13T13:20:12.028Z,196.88
2022-12-13T13:21:08.367Z,196.88
2022-12-13T13:22:21.544Z,191.25
2022-12-13T13:23:40.051Z,191.25
2022-12-13T13:24:08.758Z,191.25
2022-12-13T13:25:08.541Z,191.25
2022-12-13T13:26:26.795Z,185.62
2022-12-13T13:27:08.680Z,185.62